createdAt,value
2018-04-21T00:01:27.533Z,11.50
2018-04-21T00:02:59.345Z,14.80
2018-04-21T00:04:31.156Z,18.90
2018-04-21T00:06:02.967Z,14.30
2018-04-21T00:07:34.779Z,13.50
2018-04-21T00:09:06.590Z,13.60
2018-04-21T00:10:38.401Z,13.60
2018-04-21T00:12:10.212Z,12.50
2018-04-21T00:13:42.024Z,14.50
2018-04-21T00:15:13.935Z,16.70
2018-04-21T00:16:45.650Z,14.50
2018-04-21T00:18:17.458Z,14.10
2018-04-21T00:19:49.269Z,15.00
2018-04-21T00:21:21.079Z,15.10
2018-04-21T00:22:52.891Z,17.30
2018-04-21T00:24:24.701Z,18.80
2018-04-21T00:25:56.513Z,18.80
2018-04-21T00:27:28.323Z,14.80
2018-04-21T00:29:00.135Z,16.80
2018-04-21T00:30:31.945Z,18.10
2018-04-21T00:32:03.756Z,18.80
2018-04-21T00:33:35.668Z,17.00
2018-04-21T00:35:07.378Z,15.70
2018-04-21T00:36:39.189Z,16.80
2018-04-21T00:38:10.999Z,17.80
2018-04-21T00:39:42.960Z,20.30
2018-04-21T00:41:14.621Z,19.20
2018-04-21T00:42:46.434Z,17.90
2018-04-21T00:44:18.243Z,17.60
2018-04-21T00:45:50.054Z,18.80
2018-04-21T00:47:21.866Z,17.10
2018-04-21T00:50:25.496Z,17.80
2018-04-21T00:51:57.397Z,20.80
2018-04-21T00:53:29.113Z,16.90
2018-04-21T00:55:00.924Z,18.10
2018-04-21T00:56:32.729Z,22.00
2018-04-21T00:58:04.540Z,21.90
2018-04-21T00:59:36.351Z,19.50
2018-04-21T01:01:08.161Z,21.90
2018-04-21T01:02:39.972Z,20.70
2018-04-21T01:04:11.783Z,17.60
2018-04-21T01:05:43.594Z,18.40
2018-04-21T01:07:15.404Z,21.80
2018-04-21T01:08:47.215Z,20.70
2018-04-21T01:10:19.133Z,20.60
2018-04-21T01:11:50.836Z,24.80
2018-04-21T01:13:22.647Z,32.20
2018-04-21T01:14:54.459Z,31.20
2018-04-21T01:16:26.268Z,31.40
2018-04-21T01:17:58.078Z,25.40
2018-04-21T01:19:29.891Z,26.40
2018-04-21T01:21:01.703Z,31.30
2018-04-21T01:22:33.511Z,30.70
2018-04-21T01:24:05.328Z,28.20
2018-04-21T01:25:37.132Z,30.20
2018-04-21T01:27:08.942Z,31.70
2018-04-21T01:28:40.902Z,32.10
2018-04-21T01:30:12.563Z,33.40
2018-04-21T01:31:44.373Z,28.10
2018-04-21T01:33:16.185Z,34.20
2018-04-21T01:34:48.095Z,30.20
2018-04-21T01:36:19.805Z,30.10
2018-04-21T01:37:51.616Z,27.00
2018-04-21T01:39:23.425Z,27.70
2018-04-21T01:40:55.387Z,31.80
2018-04-21T01:42:27.047Z,33.40
2018-04-21T01:43:58.857Z,31.30
2018-04-21T01:45:30.667Z,34.70
2018-04-21T01:47:02.578Z,38.10
2018-04-21T01:48:34.287Z,39.70
2018-04-21T01:50:06.102Z,38.40
2018-04-21T01:51:37.908Z,36.40
2018-04-21T01:53:09.719Z,36.20
2018-04-21T01:54:41.529Z,37.10
2018-04-21T01:56:13.339Z,37.90
2018-04-21T01:57:45.151Z,37.40
2018-04-21T01:59:16.960Z,34.50
2018-04-21T02:00:48.770Z,38.30
2018-04-21T02:02:20.584Z,41.00
2018-04-21T02:03:52.390Z,37.40
2018-04-21T02:05:24.304Z,41.60
2018-04-21T02:06:56.011Z,35.40
2018-04-21T02:08:27.821Z,38.20
2018-04-21T02:09:59.631Z,35.30
2018-04-21T02:11:31.443Z,35.30
2018-04-21T02:13:03.253Z,37.00
2018-04-21T02:14:35.062Z,36.80
2018-04-21T02:16:06.873Z,39.60
2018-04-21T02:17:38.683Z,38.40
2018-04-21T02:19:10.493Z,39.30
2018-04-21T02:20:42.303Z,43.40
2018-04-21T02:22:14.114Z,50.70
2018-04-21T02:23:46.324Z,47.20
2018-04-21T02:25:17.733Z,51.60
2018-04-21T02:26:49.543Z,44.70
2018-04-21T02:28:21.353Z,43.20
2018-04-21T02:29:53.163Z,44.60
2018-04-21T02:31:24.973Z,45.00
2018-04-21T02:32:56.784Z,46.00
2018-04-21T02:34:28.593Z,42.10
2018-04-21T02:36:00.675Z,42.20
2018-04-21T02:37:32.214Z,41.80
2018-04-21T02:39:04.023Z,48.00
2018-04-21T02:40:35.834Z,47.50
2018-04-21T02:42:07.744Z,50.20
2018-04-21T02:43:39.658Z,46.40
2018-04-21T02:45:11.264Z,50.40
2018-04-21T02:46:43.076Z,55.00
2018-04-21T02:48:14.883Z,58.40
2018-04-21T02:49:46.695Z,66.50
2018-04-21T02:51:18.512Z,50.10
2018-04-21T02:52:50.515Z,60.10
2018-04-21T02:54:22.122Z,58.80
2018-04-21T02:55:53.932Z,57.30
2018-04-21T02:57:25.742Z,60.20
2018-04-21T02:58:57.552Z,64.00
2018-04-21T03:00:29.461Z,65.70
2018-04-21T03:02:01.173Z,59.40
2018-04-21T03:03:32.981Z,54.30
2018-04-21T03:05:04.793Z,55.60
2018-04-21T03:06:36.851Z,55.80
2018-04-21T03:08:08.411Z,50.80
2018-04-21T03:09:40.221Z,52.50
2018-04-21T03:11:12.031Z,55.10
2018-04-21T03:12:43.843Z,57.10
2018-04-21T03:14:15.653Z,61.80
2018-04-21T03:15:47.462Z,67.40
2018-04-21T03:17:19.273Z,65.20
2018-04-21T03:18:51.487Z,69.10
2018-04-21T03:20:22.893Z,72.40
2018-04-21T03:21:54.702Z,66.80
2018-04-21T03:23:26.512Z,75.40
2018-04-21T03:24:58.322Z,72.90
2018-04-21T03:26:30.132Z,73.20
2018-04-21T03:28:01.943Z,71.40
2018-04-21T03:29:33.752Z,56.50
2018-04-21T03:31:05.560Z,56.90
2018-04-21T03:32:37.371Z,58.60
2018-04-21T03:34:09.181Z,64.40
2018-04-21T03:35:40.991Z,60.00
2018-04-21T03:37:12.908Z,63.40
2018-04-21T03:38:44.612Z,67.70
2018-04-21T03:40:16.420Z,66.90
2018-04-21T03:41:48.229Z,72.50
2018-04-21T03:43:20.039Z,76.30
2018-04-21T03:44:51.852Z,67.50
2018-04-21T03:46:23.660Z,75.40
2018-04-21T03:47:55.469Z,64.70
2018-04-21T03:49:27.279Z,63.50
2018-04-21T03:50:59.137Z,77.30
2018-04-21T03:52:30.898Z,76.90
2018-04-21T03:54:02.708Z,79.90
2018-04-21T03:55:34.618Z,138.40
2018-04-21T03:57:06.328Z,165.90
2018-04-21T03:58:38.137Z,162.80
2018-04-21T04:00:09.947Z,106.20
2018-04-21T04:03:13.567Z,91.60
2018-04-21T04:04:45.377Z,135.00
2018-04-21T04:06:17.187Z,130.50
2018-04-21T04:07:48.996Z,108.10
2018-04-21T04:09:20.806Z,110.20
2018-04-21T04:10:52.618Z,100.60
2018-04-21T04:12:24.426Z,92.50
2018-04-21T04:13:56.235Z,95.20
2018-04-21T04:15:28.145Z,104.80
2018-04-21T04:16:59.855Z,126.60
2018-04-21T04:18:31.666Z,111.40
2018-04-21T04:20:03.478Z,116.50
2018-04-21T04:21:35.285Z,141.50
2018-04-21T04:23:07.096Z,162.10
2018-04-21T04:24:38.905Z,212.50
2018-04-21T04:26:10.715Z,267.70
2018-04-21T04:27:42.524Z,262.90
2018-04-21T04:29:14.334Z,300.80
2018-04-21T04:30:46.143Z,234.60
2018-04-21T04:32:17.952Z,207.70
2018-04-21T04:33:49.962Z,233.80
2018-04-21T04:35:21.571Z,185.20
2018-04-21T04:36:53.386Z,173.00
2018-04-21T04:38:25.191Z,213.20
2018-04-21T04:39:57.252Z,225.00
2018-04-21T04:41:28.813Z,214.00
2018-04-21T04:43:00.620Z,207.60
2018-04-21T04:44:32.431Z,197.00
2018-04-21T04:46:04.390Z,190.00
2018-04-21T04:47:36.049Z,199.60
2018-04-21T04:49:07.864Z,196.00
2018-04-21T04:50:39.668Z,203.80
2018-04-21T04:52:12.028Z,185.10
2018-04-21T04:53:43.287Z,178.60
2018-04-21T04:55:15.100Z,208.00
2018-04-21T04:56:46.912Z,207.10
2018-04-21T04:58:18.716Z,212.80
2018-04-21T04:59:50.525Z,233.10
2018-04-21T05:01:22.336Z,235.70
2018-04-21T05:02:54.145Z,211.50
2018-04-21T05:04:25.954Z,216.00
2018-04-21T05:05:57.763Z,215.70
2018-04-21T05:07:29.573Z,226.10
2018-04-21T05:09:01.382Z,224.10
2018-04-21T05:10:33.541Z,240.40
2018-04-21T05:12:05.000Z,258.00
2018-04-21T05:13:36.810Z,248.60
2018-04-21T05:15:08.619Z,249.10
2018-04-21T05:16:40.578Z,237.10
2018-04-21T05:18:12.242Z,264.70
2018-04-21T05:19:44.047Z,281.90
2018-04-21T05:21:15.856Z,265.10
2018-04-21T05:22:47.665Z,281.40
2018-04-21T05:24:19.477Z,300.70
2018-04-21T05:25:51.284Z,299.00
2018-04-21T05:27:23.094Z,260.30
2018-04-21T05:28:55.004Z,251.50
2018-04-21T05:30:26.714Z,237.00
2018-04-21T05:31:58.523Z,245.10
2018-04-21T05:33:30.332Z,248.90
2018-04-21T05:35:02.142Z,252.90
2018-04-21T05:36:33.952Z,242.70
2018-04-21T05:38:05.760Z,236.50
2018-04-21T05:39:37.570Z,231.80
2018-04-21T05:41:09.629Z,252.20
2018-04-21T05:42:41.193Z,263.80
2018-04-21T05:44:12.998Z,265.40
2018-04-21T05:45:44.807Z,236.10
2018-04-21T05:47:16.716Z,266.40
2018-04-21T05:48:48.425Z,255.40
2018-04-21T05:50:20.235Z,266.60
2018-04-21T05:51:52.044Z,269.20
2018-04-21T05:53:23.859Z,257.80
2018-04-21T05:54:55.662Z,227.60
2018-04-21T05:56:27.472Z,181.70
2018-04-21T05:57:59.281Z,190.20
2018-04-21T05:59:31.090Z,187.40
2018-04-21T06:01:02.899Z,199.70
2018-04-21T06:02:34.708Z,202.20
2018-04-21T06:04:06.522Z,216.10
2018-04-21T06:05:38.527Z,213.00
2018-04-21T06:07:10.137Z,220.80
2018-04-21T06:08:41.946Z,230.20
2018-04-21T06:10:13.755Z,222.70
2018-04-21T06:11:45.564Z,225.30
2018-04-21T06:13:17.373Z,227.30
2018-04-21T06:14:49.182Z,219.60
2018-04-21T06:16:20.991Z,234.70
2018-04-21T06:17:52.950Z,214.40
2018-04-21T06:19:24.610Z,198.30
2018-04-21T06:20:56.421Z,206.40
2018-04-21T06:22:28.227Z,222.00
2018-04-21T06:24:00.137Z,216.00
2018-04-21T06:25:31.845Z,243.10
2018-04-21T06:27:03.655Z,224.10
2018-04-21T06:28:35.464Z,210.60
2018-04-21T06:30:07.274Z,215.50
2018-04-21T06:31:39.083Z,291.60
2018-04-21T06:33:10.891Z,309.50
2018-04-21T06:34:42.700Z,288.60
2018-04-21T06:36:14.509Z,314.10
2018-04-21T06:37:46.318Z,334.00
2018-04-21T06:39:18.127Z,283.10
2018-04-21T06:40:49.942Z,268.90
2018-04-21T06:42:21.849Z,212.80
2018-04-21T06:43:53.555Z,182.90
2018-04-21T06:45:25.364Z,223.50
2018-04-21T06:46:57.173Z,207.20
2018-04-21T06:48:28.982Z,202.90
2018-04-21T06:50:00.792Z,196.80
2018-04-21T06:51:32.601Z,190.10
2018-04-21T06:53:04.471Z,196.40
2018-04-21T06:54:36.219Z,267.20
2018-04-21T06:56:08.028Z,338.60
2018-04-21T06:57:39.837Z,252.20
2018-04-21T06:59:11.645Z,208.90
2018-04-21T07:00:43.555Z,202.80
2018-04-21T07:02:15.263Z,188.70
2018-04-21T07:03:47.073Z,190.40
2018-04-21T07:05:18.882Z,218.60
2018-04-21T07:06:50.993Z,212.10
2018-04-21T07:08:22.500Z,221.20
2018-04-21T07:09:54.309Z,219.70
2018-04-21T07:11:26.118Z,187.60
2018-04-21T07:12:57.927Z,193.20
2018-04-21T07:14:29.736Z,199.90
2018-04-21T07:16:01.547Z,205.60
2018-04-21T07:17:33.354Z,202.50
2018-04-21T07:19:05.263Z,201.40
2018-04-21T07:20:36.973Z,209.90
2018-04-21T07:22:08.783Z,230.50
2018-04-21T07:25:12.402Z,256.80
2018-04-21T07:26:44.208Z,223.30
2018-04-21T07:28:16.016Z,216.10
2018-04-21T07:29:47.825Z,184.70
2018-04-21T07:31:19.634Z,203.70
2018-04-21T07:34:23.252Z,183.60
2018-04-21T07:35:55.083Z,177.10
2018-04-21T07:37:27.070Z,188.80
2018-04-21T07:38:58.679Z,191.50
2018-04-21T07:40:30.487Z,197.10
2018-04-21T07:42:02.297Z,200.90
2018-04-21T07:43:34.106Z,202.80
2018-04-21T07:45:05.913Z,194.50
2018-04-21T07:46:37.726Z,185.50
2018-04-21T07:48:09.532Z,209.70
2018-04-21T07:49:41.341Z,204.00
2018-04-21T07:51:13.150Z,200.90
2018-04-21T07:52:44.959Z,196.40
2018-04-21T07:54:16.767Z,199.90
2018-04-21T07:55:48.677Z,209.00
2018-04-21T07:57:20.385Z,202.00
2018-04-21T07:58:52.194Z,194.60
2018-04-21T08:00:24.006Z,211.40
2018-04-21T08:01:55.813Z,212.00
2018-04-21T08:03:27.622Z,213.70
2018-04-21T08:04:59.428Z,206.90
2018-04-21T08:06:31.242Z,200.70
2018-04-21T08:08:03.146Z,213.70
2018-04-21T08:09:34.854Z,192.10
2018-04-21T08:11:06.663Z,188.60
2018-04-21T08:12:38.471Z,202.30
2018-04-21T08:14:10.382Z,180.80
2018-04-21T08:15:42.092Z,187.10
2018-04-21T08:17:13.897Z,189.80
2018-04-21T08:18:45.706Z,225.50
2018-04-21T08:20:17.515Z,216.00
2018-04-21T08:21:49.323Z,206.10
2018-04-21T08:23:21.132Z,231.50
2018-04-21T08:24:52.940Z,273.10
2018-04-21T08:26:24.748Z,180.90
2018-04-21T08:27:56.556Z,165.80
2018-04-21T08:29:28.371Z,190.30
2018-04-21T08:31:00.174Z,188.20
2018-04-21T08:32:32.083Z,181.60
2018-04-21T08:34:03.790Z,183.30
2018-04-21T08:35:35.599Z,173.60
2018-04-21T08:37:07.407Z,178.40
2018-04-21T08:38:39.316Z,181.00
2018-04-21T08:40:11.024Z,167.50
2018-04-21T08:41:42.832Z,192.80
2018-04-21T08:43:14.641Z,182.60
2018-04-21T08:44:46.699Z,182.40
2018-04-21T08:46:18.257Z,188.40
2018-04-21T08:47:50.065Z,190.60
2018-04-21T08:49:21.876Z,239.70
2018-04-21T08:50:53.935Z,237.90
2018-04-21T08:52:25.490Z,226.50
2018-04-21T08:53:57.297Z,217.90
2018-04-21T08:55:29.106Z,134.50
2018-04-21T08:57:00.914Z,148.70
2018-04-21T08:58:32.723Z,154.10
2018-04-21T09:00:04.532Z,163.90
2018-04-21T09:01:36.341Z,153.00
2018-04-21T09:03:08.151Z,157.20
2018-04-21T09:04:39.958Z,162.40
2018-04-21T09:06:11.766Z,137.70
2018-04-21T09:07:43.575Z,140.40
2018-04-21T09:09:15.584Z,169.20
2018-04-21T09:10:47.195Z,158.10
2018-04-21T09:12:19.001Z,159.40
2018-04-21T09:13:50.812Z,130.80
2018-04-21T09:15:22.869Z,128.10
2018-04-21T09:16:54.435Z,130.80
2018-04-21T09:18:26.235Z,130.40
2018-04-21T09:19:58.043Z,124.20
2018-04-21T09:21:29.852Z,140.70
2018-04-21T09:23:01.660Z,152.70
2018-04-21T09:24:33.468Z,156.80
2018-04-21T09:26:05.276Z,129.40
2018-04-21T09:27:37.890Z,137.30
2018-04-21T09:29:08.897Z,137.20
2018-04-21T09:30:40.701Z,161.30
2018-04-21T09:32:12.509Z,138.20
2018-04-21T09:33:44.324Z,146.00
2018-04-21T09:35:16.328Z,141.70
2018-04-21T09:36:47.935Z,136.90
2018-04-21T09:38:19.742Z,126.10
2018-04-21T09:39:51.652Z,142.10
2018-04-21T09:41:23.360Z,142.90
2018-04-21T09:42:55.168Z,133.80
2018-04-21T09:44:26.977Z,131.50
2018-04-21T09:45:59.137Z,139.30
2018-04-21T09:47:30.595Z,125.90
2018-04-21T09:49:02.405Z,123.80
2018-04-21T09:52:06.025Z,136.00
2018-04-21T09:53:37.835Z,146.00
2018-04-21T09:55:09.650Z,129.80
2018-04-21T09:56:41.456Z,124.90
2018-04-21T09:58:13.417Z,117.50
2018-04-21T09:59:45.079Z,109.00
2018-04-21T10:01:16.890Z,112.90
2018-04-21T10:02:48.701Z,119.80
2018-04-21T10:04:20.615Z,128.80
2018-04-21T10:05:52.328Z,110.70
2018-04-21T10:08:56.153Z,111.30
2018-04-21T10:10:28.168Z,101.70
2018-04-21T10:11:59.578Z,99.10
2018-04-21T10:13:31.390Z,112.30
2018-04-21T10:15:03.206Z,109.60
2018-04-21T10:16:35.270Z,95.50
2018-04-21T10:18:06.830Z,93.90
2018-04-21T10:19:38.643Z,89.00
2018-04-21T10:21:10.458Z,87.20
2018-04-21T10:22:42.372Z,83.40
2018-04-21T10:25:45.904Z,84.00
2018-04-21T10:27:17.716Z,80.90
2018-04-21T10:28:50.037Z,75.60
2018-04-21T10:30:21.346Z,73.30
2018-04-21T10:31:53.162Z,75.90
2018-04-21T10:33:24.983Z,68.60
2018-04-21T10:34:56.796Z,66.60
2018-04-21T10:36:28.612Z,59.50
2018-04-21T10:38:00.429Z,60.80
2018-04-21T10:39:32.246Z,59.30
2018-04-21T10:42:36.186Z,57.50
2018-04-21T10:44:07.702Z,53.50
2018-04-21T10:45:39.516Z,57.40
2018-04-21T10:47:11.336Z,58.30
2018-04-21T10:48:43.155Z,50.00
2018-04-21T10:50:14.974Z,48.70
2018-04-21T10:53:18.611Z,50.00
2018-04-21T10:54:50.582Z,40.90
2018-04-21T10:56:22.258Z,38.30
2018-04-21T10:59:25.891Z,30.80
2018-04-21T11:00:58.345Z,29.70
2018-04-21T11:02:29.530Z,27.90
2018-04-21T11:04:01.350Z,24.10
2018-04-21T11:05:33.173Z,24.70
2018-04-21T11:07:04.989Z,18.80
2018-04-21T11:08:36.808Z,17.80
2018-04-21T11:10:08.629Z,20.10
2018-04-21T11:13:12.269Z,18.40
2018-04-21T11:16:15.909Z,14.50
2018-04-21T11:17:48.033Z,14.90
2018-04-21T11:19:19.649Z,14.30
2018-04-21T11:20:51.369Z,14.30
2018-04-21T11:22:23.189Z,14.20
2018-04-21T11:23:55.009Z,14.80
2018-04-21T11:25:26.829Z,14.80
2018-04-21T11:26:58.651Z,14.70
2018-04-21T11:28:30.470Z,14.80
2018-04-21T11:30:02.292Z,13.90
2018-04-21T11:31:34.111Z,12.40
2018-04-21T11:33:05.940Z,13.70
2018-04-21T11:34:38.060Z,12.60
2018-04-21T11:36:09.577Z,11.30
2018-04-21T11:37:42.231Z,12.00
2018-04-21T11:39:13.216Z,11.10
2018-04-21T11:40:45.038Z,11.40
2018-04-21T11:42:16.860Z,11.30
2018-04-21T11:43:48.782Z,10.00
2018-04-21T11:45:20.503Z,10.10
2018-04-21T11:46:52.325Z,9.60
2018-04-21T11:48:24.152Z,9.30
2018-04-21T11:49:56.173Z,9.20
2018-04-21T11:51:28.096Z,7.20
2018-04-21T11:52:59.616Z,7.80
2018-04-21T11:54:31.438Z,8.40
2018-04-21T11:56:03.359Z,8.50
2018-04-21T11:57:35.081Z,8.30
2018-04-21T11:59:06.907Z,11.10
2018-04-21T12:00:38.724Z,8.80
2018-04-21T12:02:10.547Z,8.10
2018-04-21T12:03:42.571Z,5.70
2018-04-21T12:05:14.191Z,4.30
2018-04-21T12:06:46.215Z,4.40
2018-04-21T12:08:17.835Z,4.40
2018-04-21T12:09:49.657Z,3.00
2018-04-21T12:11:21.479Z,4.00
2018-04-21T12:12:53.300Z,4.20
2018-04-21T12:14:25.326Z,3.20
2018-04-21T12:15:56.945Z,3.00
2018-04-21T12:17:28.768Z,3.10
2018-04-21T12:19:00.622Z,2.70
2018-04-21T12:22:04.538Z,2.80
2018-04-21T12:25:07.876Z,2.60
2018-04-21T12:26:39.701Z,2.20
2018-04-21T12:28:11.520Z,2.00
2018-04-21T12:29:43.354Z,2.40
2018-04-21T12:31:15.165Z,2.10
2018-04-21T12:32:46.987Z,2.50
2018-04-21T12:34:18.915Z,1.60
2018-04-21T12:35:50.631Z,1.70
2018-04-21T12:37:22.454Z,1.90
2018-04-21T12:38:54.480Z,1.60
2018-04-21T12:41:57.927Z,2.40
2018-04-21T12:43:30.274Z,1.60
2018-04-21T12:45:01.568Z,1.60
2018-04-21T12:46:33.389Z,1.90
2018-04-21T12:48:05.212Z,2.40
2018-04-21T12:49:37.039Z,2.00
2018-04-21T12:51:08.858Z,2.20
2018-04-21T12:52:40.683Z,2.70
2018-04-21T12:54:13.056Z,2.00
2018-04-21T12:57:16.151Z,1.90
2018-04-21T12:58:48.177Z,1.90
2018-04-21T13:00:20.162Z,1.80
2018-04-21T13:01:51.628Z,2.60
2018-04-21T13:03:23.449Z,2.60
2018-04-21T13:04:55.472Z,2.40
2018-04-21T13:06:27.095Z,2.50
2018-04-21T13:07:58.916Z,2.70
2018-04-21T13:09:30.740Z,2.10
2018-04-21T13:11:02.766Z,2.10
2018-04-21T13:14:06.514Z,1.70
2018-04-21T13:17:09.858Z,2.40
2018-04-21T13:18:41.683Z,2.10
2018-04-21T13:20:13.506Z,2.00
2018-04-21T13:21:45.330Z,3.50
2018-04-21T13:23:17.154Z,2.20
2018-04-21T13:24:48.979Z,2.40
2018-04-21T13:27:52.630Z,2.80
2018-04-21T13:29:24.449Z,2.90
2018-04-21T13:34:00.224Z,2.80
2018-04-21T13:35:32.050Z,4.00
2018-04-21T13:37:03.569Z,2.80
2018-04-21T13:38:35.392Z,2.70
2018-04-21T13:40:07.219Z,2.60
2018-04-21T13:41:39.354Z,3.40
2018-04-21T13:43:11.801Z,4.00
2018-04-21T13:44:42.691Z,2.50
2018-04-21T13:46:14.514Z,2.40
2018-04-21T13:47:46.339Z,2.60
2018-04-21T13:49:18.163Z,3.50
2018-04-21T13:52:22.118Z,3.40
2018-04-21T13:53:53.636Z,2.70
2018-04-21T13:55:25.460Z,3.10
2018-04-21T13:56:57.815Z,3.10
2018-04-21T13:58:29.107Z,2.80
2018-04-21T14:00:00.934Z,3.00
2018-04-21T14:01:32.756Z,3.30
2018-04-21T14:03:04.580Z,3.10
2018-04-21T14:06:08.580Z,3.40
2018-04-21T14:09:11.882Z,3.10
2018-04-21T14:10:44.007Z,3.80
2018-04-21T14:12:15.626Z,3.20
2018-04-21T14:13:47.350Z,3.90
2018-04-21T14:15:19.178Z,3.20
2018-04-21T14:16:50.998Z,3.40
2018-04-21T14:18:22.823Z,3.50
2018-04-21T14:19:54.647Z,3.50
2018-04-21T14:21:26.476Z,3.10
2018-04-21T14:22:58.501Z,3.50
2018-04-21T14:24:30.423Z,3.30
2018-04-21T14:26:02.462Z,3.50
2018-04-21T14:27:34.301Z,3.60
2018-04-21T14:29:05.601Z,3.60
2018-04-21T14:30:37.520Z,4.50
2018-04-21T14:32:09.245Z,3.90
2018-04-21T14:33:41.073Z,4.00
2018-04-21T14:35:13.111Z,3.30
2018-04-21T14:36:44.721Z,3.60
2018-04-21T14:38:16.546Z,3.60
2018-04-21T14:41:20.196Z,3.50
2018-04-21T14:44:24.200Z,4.00
2018-04-21T14:45:55.674Z,3.60
2018-04-21T14:47:27.501Z,3.20
2018-04-21T14:48:59.528Z,3.20
2018-04-21T14:50:31.348Z,3.40
2018-04-21T14:52:02.973Z,3.00
2018-04-21T14:53:34.800Z,3.50
2018-04-21T14:55:06.625Z,4.20
2018-04-21T14:56:38.448Z,3.90
2018-04-21T14:58:10.274Z,4.20
2018-04-21T14:59:42.101Z,3.90
2018-04-21T15:01:13.943Z,5.20
2018-04-21T15:02:46.053Z,3.60
2018-04-21T15:05:49.413Z,4.00
2018-04-21T15:07:21.227Z,4.10
2018-04-21T15:08:53.304Z,3.70
2018-04-21T15:10:24.892Z,4.10
2018-04-21T15:11:56.704Z,4.70
2018-04-21T15:13:28.537Z,3.90
2018-04-21T15:15:00.889Z,3.70
2018-04-21T15:16:32.184Z,4.30
2018-04-21T15:19:35.837Z,3.60
2018-04-21T15:21:07.863Z,3.80
2018-04-21T15:22:39.488Z,4.20
2018-04-21T15:24:11.517Z,3.60
2018-04-21T15:25:43.144Z,4.30
2018-04-21T15:27:15.069Z,3.90
2018-04-21T15:30:20.036Z,5.10
2018-04-21T15:31:50.445Z,4.60
2018-04-21T15:33:22.272Z,4.80
2018-04-21T15:34:54.402Z,5.00
2018-04-21T15:36:25.928Z,3.60
2018-04-21T15:37:57.755Z,3.90
2018-04-21T15:39:29.581Z,5.10
2018-04-21T15:41:01.405Z,4.70
2018-04-21T15:42:33.232Z,3.70
2018-04-21T15:44:05.060Z,4.10
2018-04-21T15:45:36.988Z,4.10
2018-04-21T15:47:08.717Z,4.30
2018-04-21T15:48:40.541Z,4.80
2018-04-21T15:50:12.573Z,4.40
2018-04-21T15:51:44.496Z,5.10
2018-04-21T15:53:16.022Z,3.70
2018-04-21T15:54:47.894Z,5.80
2018-04-21T15:56:19.673Z,4.10
2018-04-21T15:57:51.501Z,5.20
2018-04-21T15:59:23.326Z,4.40
2018-04-21T16:00:55.153Z,3.70
2018-04-21T16:02:26.980Z,3.80
2018-04-21T16:03:58.908Z,4.50
2018-04-21T16:07:02.464Z,7.30
2018-04-21T16:08:34.862Z,3.90
2018-04-21T16:10:06.649Z,4.70
2018-04-21T16:11:37.946Z,4.90
2018-04-21T16:13:10.307Z,4.70
2018-04-21T16:14:41.599Z,5.00
2018-04-21T16:16:13.425Z,5.20
2018-04-21T16:17:45.253Z,4.70
2018-04-21T16:19:17.078Z,4.60
2018-04-21T16:20:48.905Z,5.30
2018-04-21T16:22:20.937Z,4.60
2018-04-21T16:23:52.561Z,4.60
2018-04-21T16:27:02.792Z,5.50
2018-04-21T16:29:59.870Z,4.00
2018-04-21T16:31:31.701Z,5.20
2018-04-21T16:33:03.525Z,4.90
2018-04-21T16:34:35.352Z,4.90
2018-04-21T16:36:07.177Z,5.30
2018-04-21T16:37:39.206Z,5.40
2018-04-21T16:39:10.829Z,5.10
2018-04-21T16:42:14.730Z,7.30
2018-04-21T16:43:46.508Z,7.80
2018-04-21T16:45:18.332Z,7.90
2018-04-21T16:46:50.157Z,7.80
2018-04-21T16:48:21.779Z,9.30
2018-04-21T16:49:53.604Z,8.70
2018-04-21T16:51:25.427Z,9.90
2018-04-21T16:54:29.330Z,12.60
2018-04-21T16:56:00.903Z,11.10
2018-04-21T16:57:32.725Z,12.20
2018-04-21T16:59:04.550Z,12.10
2018-04-21T17:00:36.774Z,11.90
2018-04-21T17:02:08.193Z,11.70
2018-04-21T17:05:12.144Z,11.30
2018-04-21T17:06:43.663Z,11.90
2018-04-21T17:08:15.486Z,11.70
2018-04-21T17:11:19.132Z,11.70
2018-04-21T17:12:51.261Z,11.80
2018-04-21T17:14:22.980Z,11.60
2018-04-21T17:15:54.602Z,11.60
2018-04-21T17:17:26.422Z,12.50
2018-04-21T17:18:58.547Z,11.40
2018-04-21T17:22:01.890Z,10.70
2018-04-21T17:23:33.718Z,11.00
2018-04-21T17:25:05.637Z,11.60
2018-04-21T17:26:37.359Z,11.10
2018-04-21T17:28:09.186Z,10.20
2018-04-21T17:31:12.836Z,10.20
2018-04-21T17:32:44.657Z,10.60
2018-04-21T17:34:16.533Z,11.30
2018-04-21T17:35:48.608Z,10.20
2018-04-21T17:37:20.229Z,10.80
2018-04-21T17:40:24.082Z,10.20
2018-04-21T17:41:55.602Z,11.10
2018-04-21T17:43:27.426Z,10.90
2018-04-21T17:44:59.454Z,11.80
2018-04-21T17:46:31.075Z,11.80
2018-04-21T17:48:02.967Z,10.90
2018-04-21T17:49:34.725Z,11.00
2018-04-21T17:51:06.549Z,11.00
2018-04-21T17:52:38.373Z,12.80
2018-04-21T17:54:10.198Z,13.00
2018-04-21T17:57:13.956Z,12.80
2018-04-21T17:58:45.672Z,12.50
2018-04-21T18:00:17.495Z,13.60
2018-04-21T18:01:49.321Z,13.20
2018-04-21T18:03:21.144Z,12.90
2018-04-21T18:06:24.796Z,13.30
2018-04-21T18:07:56.617Z,14.70
2018-04-21T18:09:28.442Z,14.20
2018-04-21T18:11:00.265Z,14.50
2018-04-21T18:12:32.090Z,13.90
2018-04-21T18:14:03.913Z,13.90
2018-04-21T18:15:35.868Z,14.20
2018-04-21T18:17:07.560Z,15.20
2018-04-21T18:18:39.383Z,15.50
2018-04-21T18:20:11.207Z,16.90
2018-04-21T18:21:43.031Z,17.70
2018-04-21T18:23:14.854Z,16.60
2018-04-21T18:26:18.501Z,16.90
2018-04-21T18:27:50.335Z,16.70
2018-04-21T18:29:22.451Z,18.00
2018-04-21T18:30:54.011Z,17.90
2018-04-21T18:32:26.324Z,16.90
2018-04-21T18:33:57.717Z,16.00
2018-04-21T18:35:29.442Z,16.80
2018-04-21T18:37:01.263Z,16.60
2018-04-21T18:38:33.086Z,16.80
2018-04-21T18:40:04.910Z,16.80
2018-04-21T18:43:08.554Z,17.00
2018-04-21T18:44:40.681Z,17.80
2018-04-21T18:46:12.202Z,17.30
2018-04-21T18:47:44.229Z,18.00
2018-04-21T18:49:15.844Z,17.90
2018-04-21T18:50:47.666Z,17.80
2018-04-21T18:52:19.701Z,17.30
2018-04-21T18:53:51.309Z,17.30
2018-04-21T18:55:23.134Z,16.70
2018-04-21T18:58:26.876Z,19.10
2018-04-21T19:01:30.421Z,18.70
2018-04-21T19:03:02.242Z,17.90
2018-04-21T19:06:05.882Z,19.20
2018-04-21T19:07:37.708Z,17.70
2018-04-21T19:09:09.525Z,17.40
2018-04-21T19:10:41.345Z,18.80
2018-04-21T19:12:13.267Z,19.60
2018-04-21T19:15:16.809Z,18.00
2018-04-21T19:16:48.628Z,18.50
2018-04-21T19:18:20.452Z,20.00
2018-04-21T19:19:52.336Z,19.30
2018-04-21T19:21:24.091Z,19.10
2018-04-21T19:22:55.912Z,18.70
2018-04-21T19:24:27.731Z,18.60
2018-04-21T19:25:59.554Z,20.50
2018-04-21T19:27:31.372Z,20.20
2018-04-21T19:29:03.192Z,19.50
2018-04-21T19:30:35.234Z,19.00
2018-04-21T19:32:06.831Z,18.90
2018-04-21T19:33:38.649Z,19.30
2018-04-21T19:35:10.470Z,18.20
2018-04-21T19:36:42.287Z,18.00
2018-04-21T19:38:14.111Z,19.40
2018-04-21T19:39:45.927Z,19.70
2018-04-21T19:41:18.048Z,19.70
2018-04-21T19:42:49.564Z,20.60
2018-04-21T19:44:21.383Z,20.90
2018-04-21T19:45:53.200Z,21.60
2018-04-21T19:47:25.018Z,21.30
2018-04-21T19:48:56.937Z,21.70
2018-04-21T19:50:28.665Z,21.80
2018-04-21T19:52:00.475Z,22.90
2018-04-21T19:53:32.293Z,21.60
2018-04-21T19:55:04.110Z,22.50
2018-04-21T19:56:36.723Z,21.70
2018-04-21T19:58:07.747Z,22.20
2018-04-21T20:01:11.685Z,20.90
2018-04-21T20:02:43.200Z,21.60
2018-04-21T20:04:15.018Z,21.60
2018-04-21T20:05:46.838Z,26.20
2018-04-21T20:07:18.754Z,22.20
2018-04-21T20:08:50.473Z,21.70
2018-04-21T20:10:22.286Z,24.90
2018-04-21T20:11:54.103Z,25.60
2018-04-21T20:13:25.921Z,23.70
2018-04-21T20:14:58.046Z,22.50
2018-04-21T20:16:29.623Z,23.70
2018-04-21T20:18:01.370Z,24.90
2018-04-21T20:19:33.185Z,24.40
2018-04-21T20:21:05.005Z,27.10
2018-04-21T20:22:36.816Z,26.10
2018-04-21T20:25:40.750Z,25.60
2018-04-21T20:27:12.263Z,26.80
2018-04-21T20:28:44.080Z,26.50
2018-04-21T20:30:15.894Z,28.70
2018-04-21T20:31:47.838Z,27.40
2018-04-21T20:33:19.525Z,28.80
2018-04-21T20:34:51.869Z,27.40
2018-04-21T20:36:23.203Z,30.30
2018-04-21T20:37:54.968Z,27.50
2018-04-21T20:39:26.783Z,27.30
2018-04-21T20:40:58.803Z,27.80
2018-04-21T20:42:30.412Z,26.10
2018-04-21T20:44:02.326Z,26.90
2018-04-21T20:45:34.040Z,24.60
2018-04-21T20:47:05.855Z,25.90
2018-04-21T20:48:37.670Z,26.20
2018-04-21T20:50:09.483Z,25.40
2018-04-21T20:51:41.298Z,25.80
2018-04-21T20:53:13.112Z,26.60
2018-04-21T20:54:44.926Z,25.80